createdAt,value
2019-01-27T00:03:42.198Z,5.00
2019-01-27T00:08:51.306Z,5.21
2019-01-27T00:14:00.519Z,4.48
2019-01-27T00:19:09.649Z,3.79
2019-01-27T00:24:18.875Z,3.72
2019-01-27T00:29:28.020Z,4.42
2019-01-27T00:34:37.148Z,3.77
2019-01-27T00:39:46.278Z,4.32
2019-01-27T00:44:55.568Z,6.18
2019-01-27T00:50:04.664Z,5.34
2019-01-27T00:55:13.808Z,6.39
2019-01-27T01:00:22.905Z,7.31
2019-01-27T01:05:32.201Z,6.06
2019-01-27T01:10:41.351Z,5.18
2019-01-27T01:15:50.594Z,5.16
2019-01-27T01:20:59.726Z,3.88
2019-01-27T01:26:08.897Z,3.60
2019-01-27T01:31:17.996Z,4.21
2019-01-27T01:36:27.281Z,5.14
2019-01-27T01:41:36.421Z,5.88
2019-01-27T01:46:45.569Z,5.22
2019-01-27T01:51:54.672Z,5.24
2019-01-27T01:57:03.810Z,4.10
2019-01-27T02:02:12.925Z,3.55
2019-01-27T02:07:22.235Z,5.40
2019-01-27T02:12:31.357Z,4.03
2019-01-27T02:17:40.759Z,4.03
2019-01-27T02:22:49.859Z,3.26
2019-01-27T02:27:59.027Z,5.52
2019-01-27T02:33:08.137Z,5.32
2019-01-27T02:38:17.305Z,5.91
2019-01-27T02:43:26.409Z,3.29
2019-01-27T02:48:35.624Z,2.58
2019-01-27T02:53:43.727Z,3.36
2019-01-27T02:58:52.993Z,3.93
2019-01-27T03:04:02.184Z,3.21
2019-01-27T03:09:11.391Z,3.43
2019-01-27T03:14:20.483Z,3.62
2019-01-27T03:19:29.609Z,5.85
2019-01-27T03:24:38.718Z,3.95
2019-01-27T03:29:47.864Z,6.23
2019-01-27T03:34:56.953Z,5.90
2019-01-27T03:40:06.313Z,3.91
2019-01-27T03:45:15.389Z,3.93
2019-01-27T03:50:24.671Z,3.25
2019-01-27T03:55:33.773Z,5.83
2019-01-27T04:00:42.941Z,8.19
2019-01-27T04:05:52.053Z,6.23
2019-01-27T04:11:01.197Z,6.97
2019-01-27T04:16:10.373Z,8.44
2019-01-27T04:21:19.595Z,8.75
2019-01-27T04:26:28.672Z,6.83
2019-01-27T04:31:37.984Z,8.37
2019-01-27T04:36:47.083Z,6.18
2019-01-27T04:41:56.325Z,5.76
2019-01-27T04:47:05.417Z,5.25
2019-01-27T04:52:14.574Z,7.39
2019-01-27T04:57:23.726Z,6.94
2019-01-27T05:02:32.896Z,7.78
2019-01-27T05:07:42.076Z,8.54
2019-01-27T05:12:51.212Z,5.45
2019-01-27T05:18:00.439Z,5.68
2019-01-27T05:23:09.623Z,4.48
2019-01-27T05:28:18.729Z,3.83
2019-01-27T05:33:28.022Z,3.05
2019-01-27T05:38:37.136Z,3.21
2019-01-27T05:43:46.325Z,3.37
2019-01-27T05:48:55.439Z,3.04
2019-01-27T05:54:04.562Z,3.57
2019-01-27T05:59:13.814Z,4.08
2019-01-27T06:04:23.057Z,4.33
2019-01-27T06:09:32.164Z,3.64
2019-01-27T06:14:41.298Z,3.70
2019-01-27T06:19:50.417Z,4.65
2019-01-27T06:24:59.589Z,3.67
2019-01-27T06:30:08.721Z,6.30
2019-01-27T06:35:18.029Z,7.66
2019-01-27T06:40:27.117Z,4.46
2019-01-27T06:45:36.273Z,5.99
2019-01-27T06:50:45.410Z,10.42
2019-01-27T06:55:54.594Z,5.54
2019-01-27T07:01:03.925Z,3.96
2019-01-27T07:06:13.071Z,4.44
2019-01-27T07:11:22.311Z,5.86
2019-01-27T07:16:31.453Z,6.52
2019-01-27T07:21:40.565Z,8.38
2019-01-27T07:26:49.816Z,6.31
2019-01-27T07:31:58.938Z,6.07
2019-01-27T07:37:08.324Z,9.89
2019-01-27T07:42:17.443Z,6.64
2019-01-27T07:47:26.597Z,7.53
2019-01-27T07:52:35.720Z,8.13
2019-01-27T07:57:45.077Z,8.71
2019-01-27T08:02:54.171Z,8.80
2019-01-27T08:08:03.294Z,6.23
2019-01-27T08:13:12.418Z,6.47
2019-01-27T08:18:21.601Z,5.96
2019-01-27T08:23:30.714Z,5.01
2019-01-27T08:28:40.112Z,4.72
2019-01-27T08:33:49.209Z,4.25
2019-01-27T08:38:58.360Z,3.57
2019-01-27T08:44:07.516Z,5.39
2019-01-27T08:49:16.794Z,5.50
2019-01-27T08:54:25.909Z,5.17
2019-01-27T08:59:35.092Z,3.86
2019-01-27T09:04:44.208Z,4.17
2019-01-27T09:09:53.412Z,4.97
2019-01-27T09:15:02.477Z,4.77
2019-01-27T09:20:11.641Z,7.40
2019-01-27T09:25:20.790Z,6.69
2019-01-27T09:30:30.184Z,4.12
2019-01-27T09:35:39.295Z,3.72
2019-01-27T09:40:48.526Z,4.15
2019-01-27T09:46:05.088Z,4.76
2019-01-27T09:51:06.444Z,2.65
2019-01-27T09:56:15.544Z,5.10
2019-01-27T10:01:24.828Z,4.72
2019-01-27T10:06:32.472Z,6.35
2019-01-27T10:11:42.964Z,3.44
2019-01-27T10:16:42.048Z,4.35
2019-01-27T10:21:51.488Z,3.61
2019-01-27T10:27:02.658Z,2.36
2019-01-27T10:32:06.115Z,2.19
2019-01-27T10:37:11.813Z,2.10
2019-01-27T10:42:13.978Z,2.66
2019-01-27T10:47:23.096Z,2.48
2019-01-27T10:52:32.432Z,2.56
2019-01-27T10:57:42.510Z,2.43
2019-01-27T11:02:48.749Z,2.53
2019-01-27T11:07:57.950Z,2.19
2019-01-27T11:13:07.105Z,2.94
2019-01-27T11:18:16.233Z,3.64
2019-01-27T11:23:25.482Z,3.48
2019-01-27T11:28:34.583Z,2.91
2019-01-27T11:33:43.841Z,2.22
2019-01-27T11:38:52.944Z,2.02
2019-01-27T11:44:02.261Z,2.28
2019-01-27T11:49:11.380Z,2.20
2019-01-27T11:54:20.963Z,2.01
2019-01-27T11:59:30.122Z,2.73
2019-01-27T12:04:39.241Z,2.65
2019-01-27T12:09:48.358Z,3.25
2019-01-27T12:14:57.505Z,2.35
2019-01-27T12:20:06.630Z,2.78
2019-01-27T12:25:16.218Z,3.32
2019-01-27T12:30:25.405Z,3.14
2019-01-27T12:35:34.648Z,2.43
2019-01-27T12:40:44.062Z,2.69
2019-01-27T12:45:53.247Z,2.95
2019-01-27T12:51:02.356Z,2.64
2019-01-27T12:56:11.521Z,3.08
2019-01-27T13:01:20.625Z,3.05
2019-01-27T13:06:29.838Z,3.51
2019-01-27T13:11:38.967Z,3.12
2019-01-27T13:16:48.245Z,2.38
2019-01-27T13:21:57.378Z,2.87
2019-01-27T13:27:06.563Z,3.22
2019-01-27T13:32:15.705Z,3.11
2019-01-27T13:37:24.956Z,2.04
2019-01-27T13:42:34.081Z,3.05
2019-01-27T13:47:43.226Z,2.36
2019-01-27T13:52:52.336Z,3.10
2019-01-27T13:58:01.479Z,2.80
2019-01-27T14:03:10.576Z,2.22
2019-01-27T14:08:20.241Z,2.31
2019-01-27T14:13:29.493Z,2.58
2019-01-27T14:18:38.620Z,3.49
2019-01-27T14:23:47.783Z,2.42
2019-01-27T14:28:56.913Z,2.54
2019-01-27T14:34:06.045Z,2.58
2019-01-27T14:39:15.382Z,2.76
2019-01-27T14:44:24.476Z,2.75
2019-01-27T14:49:33.711Z,2.63
2019-01-27T14:54:42.854Z,2.06
2019-01-27T14:59:52.110Z,1.84
2019-01-27T15:05:01.207Z,1.91
2019-01-27T15:10:10.391Z,2.49
2019-01-27T15:15:19.553Z,2.86
2019-01-27T15:20:28.688Z,2.90
2019-01-27T15:25:37.784Z,2.62
2019-01-27T15:30:47.070Z,2.49
2019-01-27T15:35:56.150Z,3.10
2019-01-27T15:41:05.753Z,3.14
2019-01-27T15:46:15.031Z,2.55
2019-01-27T15:51:24.254Z,3.29
2019-01-27T15:56:33.377Z,2.63
2019-01-27T16:01:44.608Z,3.88
2019-01-27T16:06:43.731Z,3.48
2019-01-27T16:11:52.885Z,2.64
2019-01-27T16:17:01.978Z,3.49
2019-01-27T16:22:11.172Z,2.55
2019-01-27T16:27:20.350Z,2.63
2019-01-27T16:32:29.515Z,3.10
2019-01-27T16:37:38.660Z,1.88
2019-01-27T16:42:47.956Z,3.47
2019-01-27T16:47:57.080Z,3.21
2019-01-27T16:53:06.294Z,2.70
2019-01-27T16:58:15.384Z,2.41
2019-01-27T17:03:25.107Z,2.71
2019-01-27T17:08:34.232Z,2.06
2019-01-27T17:13:43.399Z,2.39
2019-01-27T17:18:52.532Z,2.61
2019-01-27T17:24:01.746Z,2.50
2019-01-27T17:29:10.885Z,2.15
2019-01-27T17:34:20.233Z,2.49
2019-01-27T17:39:29.346Z,2.64
2019-01-27T17:44:38.674Z,2.65
2019-01-27T17:49:47.777Z,2.09
2019-01-27T17:54:56.911Z,2.31
2019-01-27T18:00:06.013Z,2.14
2019-01-27T18:05:15.282Z,2.09
2019-01-27T18:10:24.363Z,2.55
2019-01-27T18:15:34.612Z,2.30
2019-01-27T18:20:42.282Z,2.84
2019-01-27T18:25:51.538Z,2.51
2019-01-27T18:31:00.641Z,2.57
2019-01-27T18:36:09.977Z,2.06
2019-01-27T18:41:19.073Z,2.67
2019-01-27T18:46:28.318Z,3.33
2019-01-27T18:51:37.460Z,2.84
2019-01-27T18:56:46.633Z,3.02
2019-01-27T19:01:58.735Z,2.71
2019-01-27T19:06:57.865Z,3.19
2019-01-27T19:12:07.060Z,3.06
2019-01-27T19:17:16.227Z,2.88
2019-01-27T19:22:25.405Z,2.79
2019-01-27T19:27:34.596Z,3.66
2019-01-27T19:32:43.732Z,2.43
2019-01-27T19:37:53.073Z,2.83
2019-01-27T19:43:03.268Z,2.55
2019-01-27T19:48:00.952Z,9.87
2019-01-27T19:53:10.103Z,2.48
2019-01-27T19:58:19.301Z,3.16
2019-01-27T20:03:28.434Z,2.72
2019-01-27T20:08:37.637Z,3.23
2019-01-27T20:13:46.734Z,3.37
2019-01-27T20:18:56.108Z,2.93
2019-01-27T20:24:05.215Z,3.25
2019-01-27T20:29:14.512Z,3.31
2019-01-27T20:34:23.645Z,2.92
2019-01-27T20:39:33.023Z,3.19
2019-01-27T20:44:42.043Z,2.99
2019-01-27T20:49:51.309Z,3.02
2019-01-27T20:55:00.410Z,3.17
2019-01-27T21:00:09.556Z,3.59
2019-01-27T21:05:18.759Z,3.18
2019-01-27T21:10:27.981Z,3.15
2019-01-27T21:15:37.095Z,2.91
2019-01-27T21:20:46.368Z,3.12
2019-01-27T21:25:55.441Z,3.35
2019-01-27T21:31:04.592Z,3.42
2019-01-27T21:36:13.661Z,4.83
2019-01-27T21:41:22.777Z,4.07
2019-01-27T21:46:31.873Z,4.06
2019-01-27T21:51:41.028Z,2.87
2019-01-27T21:56:50.151Z,4.46
2019-01-27T22:01:59.377Z,4.63
2019-01-27T22:07:08.487Z,4.24
2019-01-27T22:12:17.817Z,4.19
2019-01-27T22:17:26.950Z,4.20
2019-01-27T22:22:36.213Z,3.72
2019-01-27T22:27:45.732Z,3.55
2019-01-27T22:32:54.363Z,2.87
2019-01-27T22:38:03.491Z,3.49
2019-01-27T22:43:12.958Z,4.36
2019-01-27T22:48:22.132Z,4.88
2019-01-27T22:53:31.497Z,6.12
2019-01-27T22:58:40.588Z,4.68
2019-01-27T23:03:49.768Z,5.53
2019-01-27T23:08:58.866Z,4.49
2019-01-27T23:14:08.139Z,3.60
2019-01-27T23:19:17.253Z,4.50
2019-01-27T23:24:26.515Z,4.20
2019-01-27T23:29:35.608Z,4.46
2019-01-27T23:34:44.904Z,4.08
2019-01-27T23:39:53.976Z,3.66
2019-01-27T23:45:03.105Z,3.54
2019-01-27T23:50:12.267Z,4.15
2019-01-27T23:55:21.356Z,4.48
